sensor_id;sensor_type;location;lat;lon;timestamp;pressure;altitude;pressure_sealevel;temperature;humidity
14204;BME280;7185;51.854;6.622;2023-01-28T00:02:25;102608.44;;;4.49;79.61
14204;BME280;7185;51.854;6.622;2023-01-28T00:04:58;102608.63;;;4.54;80.29
14204;BME280;7185;51.854;6.622;2023-01-28T00:07:30;102609.09;;;4.66;80.64
14204;BME280;7185;51.854;6.622;2023-01-28T00:10:01;102606.97;;;4.56;80.51
14204;BME280;7185;51.854;6.622;2023-01-28T00:12:33;102609.22;;;4.46;80.18
14204;BME280;7185;51.854;6.622;2023-01-28T00:15:06;102607.69;;;4.52;80.36
14204;BME280;7185;51.854;6.622;2023-01-28T00:17:37;102614.22;;;4.42;80.12
14204;BME280;7185;51.854;6.622;2023-01-28T00:20:11;102609.66;;;4.36;79.12
14204;BME280;7185;51.854;6.622;2023-01-28T00:22:45;102613.06;;;4.35;80.44
14204;BME280;7185;51.854;6.622;2023-01-28T00:25:17;102607.50;;;4.47;80.49
14204;BME280;7185;51.854;6.622;2023-01-28T00:27:49;102613.84;;;4.33;81.69
14204;BME280;7185;51.854;6.622;2023-01-28T00:30:21;102611.38;;;4.36;81.50
14204;BME280;7185;51.854;6.622;2023-01-28T00:32:53;102613.28;;;4.40;81.32
14204;BME280;7185;51.854;6.622;2023-01-28T00:35:26;102616.41;;;4.31;81.28
14204;BME280;7185;51.854;6.622;2023-01-28T00:37:59;102607.00;;;4.35;80.48
14204;BME280;7185;51.854;6.622;2023-01-28T00:40:32;102614.63;;;4.30;80.10
14204;BME280;7185;51.854;6.622;2023-01-28T00:43:04;102621.59;;;4.31;79.64
14204;BME280;7185;51.854;6.622;2023-01-28T00:45:35;102625.13;;;4.33;80.15
14204;BME280;7185;51.854;6.622;2023-01-28T00:48:08;102630.34;;;4.33;80.47
14204;BME280;7185;51.854;6.622;2023-01-28T00:50:41;102637.03;;;4.28;80.88
14204;BME280;7185;51.854;6.622;2023-01-28T00:53:13;102640.72;;;4.33;80.83
14204;BME280;7185;51.854;6.622;2023-01-28T00:55:45;102638.00;;;4.30;80.71
14204;BME280;7185;51.854;6.622;2023-01-28T00:58:16;102643.94;;;4.27;81.95
14204;BME280;7185;51.854;6.622;2023-01-28T01:00:50;102635.41;;;4.30;81.35
14204;BME280;7185;51.854;6.622;2023-01-28T01:03:22;102647.06;;;4.19;81.88
14204;BME280;7185;51.854;6.622;2023-01-28T01:05:56;102638.56;;;4.23;82.42
14204;BME280;7185;51.854;6.622;2023-01-28T01:08:28;102636.53;;;4.15;81.21
14204;BME280;7185;51.854;6.622;2023-01-28T01:11:05;102641.47;;;4.09;81.64
14204;BME280;7185;51.854;6.622;2023-01-28T01:13:37;102631.72;;;4.04;80.69
14204;BME280;7185;51.854;6.622;2023-01-28T01:16:10;102627.59;;;3.88;80.02
14204;BME280;7185;51.854;6.622;2023-01-28T01:18:42;102628.41;;;3.87;80.18
14204;BME280;7185;51.854;6.622;2023-01-28T01:21:17;102633.06;;;3.94;80.85
14204;BME280;7185;51.854;6.622;2023-01-28T01:23:49;102631.03;;;3.87;80.07
14204;BME280;7185;51.854;6.622;2023-01-28T01:26:21;102619.00;;;3.89;81.55
14204;BME280;7185;51.854;6.622;2023-01-28T01:28:53;102620.06;;;3.94;81.96
14204;BME280;7185;51.854;6.622;2023-01-28T01:31:25;102628.31;;;4.05;81.73
14204;BME280;7185;51.854;6.622;2023-01-28T01:33:57;102622.72;;;3.95;81.00
14204;BME280;7185;51.854;6.622;2023-01-28T01:36:30;102624.03;;;4.05;81.57
14204;BME280;7185;51.854;6.622;2023-01-28T01:39:01;102623.31;;;4.09;81.30
14204;BME280;7185;51.854;6.622;2023-01-28T01:41:33;102624.03;;;4.05;81.71
14204;BME280;7185;51.854;6.622;2023-01-28T01:44:05;102622.34;;;4.07;81.89
14204;BME280;7185;51.854;6.622;2023-01-28T01:46:41;102629.31;;;4.08;81.36
14204;BME280;7185;51.854;6.622;2023-01-28T01:49:18;102628.19;;;4.02;81.88
14204;BME280;7185;51.854;6.622;2023-01-28T01:51:54;102630.47;;;3.94;81.79
14204;BME280;7185;51.854;6.622;2023-01-28T01:54:29;102640.03;;;3.95;82.46
14204;BME280;7185;51.854;6.622;2023-01-28T01:57:04;102631.22;;;3.91;81.30
14204;BME280;7185;51.854;6.622;2023-01-28T01:59:39;102625.16;;;3.91;81.76
14204;BME280;7185;51.854;6.622;2023-01-28T02:02:12;102631.97;;;3.89;81.75
14204;BME280;7185;51.854;6.622;2023-01-28T02:04:44;102629.50;;;3.92;82.03
14204;BME280;7185;51.854;6.622;2023-01-28T02:07:17;102631.94;;;3.87;82.08
14204;BME280;7185;51.854;6.622;2023-01-28T02:09:51;102638.19;;;3.92;82.50
14204;BME280;7185;51.854;6.622;2023-01-28T02:12:25;102638.94;;;3.90;82.28
14204;BME280;7185;51.854;6.622;2023-01-28T02:15:01;102630.06;;;3.85;82.29
14204;BME280;7185;51.854;6.622;2023-01-28T02:17:34;102634.31;;;3.82;82.21
14204;BME280;7185;51.854;6.622;2023-01-28T02:20:08;102638.69;;;3.83;82.83
14204;BME280;7185;51.854;6.622;2023-01-28T02:22:59;102636.78;;;3.79;82.60
14204;BME280;7185;51.854;6.622;2023-01-28T02:25:48;102633.66;;;3.88;82.39
14204;BME280;7185;51.854;6.622;2023-01-28T02:28:31;102634.38;;;3.84;82.66
14204;BME280;7185;51.854;6.622;2023-01-28T02:31:10;102635.94;;;3.80;82.61
14204;BME280;7185;51.854;6.622;2023-01-28T02:33:51;102639.50;;;3.82;82.88
14204;BME280;7185;51.854;6.622;2023-01-28T02:36:33;102641.91;;;3.78;82.48
14204;BME280;7185;51.854;6.622;2023-01-28T02:39:09;102641.19;;;3.82;82.62
14204;BME280;7185;51.854;6.622;2023-01-28T02:41:45;102637.03;;;3.86;82.74
14204;BME280;7185;51.854;6.622;2023-01-28T02:44:21;102623.13;;;3.83;82.83
14204;BME280;7185;51.854;6.622;2023-01-28T02:46:53;102630.06;;;3.85;83.24
14204;BME280;7185;51.854;6.622;2023-01-28T02:49:45;102626.66;;;3.86;83.56
14204;BME280;7185;51.854;6.622;2023-01-28T02:52:31;102629.00;;;3.79;82.27
14204;BME280;7185;51.854;6.622;2023-01-28T02:55:30;102635.81;;;3.77;82.83
14204;BME280;7185;51.854;6.622;2023-01-28T02:58:10;102633.22;;;3.77;82.72
14204;BME280;7185;51.854;6.622;2023-01-28T03:00:52;102632.53;;;3.81;82.88
14204;BME280;7185;51.854;6.622;2023-01-28T03:03:31;102636.66;;;3.76;82.66
14204;BME280;7185;51.854;6.622;2023-01-28T03:06:11;102636.50;;;3.73;82.68
14204;BME280;7185;51.854;6.622;2023-01-28T03:08:46;102634.88;;;3.75;82.85
14204;BME280;7185;51.854;6.622;2023-01-28T03:11:39;102636.66;;;3.76;82.66
14204;BME280;7185;51.854;6.622;2023-01-28T03:14:31;102636.41;;;3.91;82.53
14204;BME280;7185;51.854;6.622;2023-01-28T03:17:25;102636.00;;;3.82;82.06
14204;BME280;7185;51.854;6.622;2023-01-28T03:20:16;102631.94;;;3.67;81.80
14204;BME280;7185;51.854;6.622;2023-01-28T03:23:08;102635.44;;;3.68;82.21
14204;BME280;7185;51.854;6.622;2023-01-28T03:26:00;102633.34;;;3.80;82.30
14204;BME280;7185;51.854;6.622;2023-01-28T03:28:50;102634.88;;;3.75;81.91
14204;BME280;7185;51.854;6.622;2023-01-28T03:31:40;102635.56;;;3.71;82.62
14204;BME280;7185;51.854;6.622;2023-01-28T03:34:31;102638.03;;;3.68;82.46
14204;BME280;7185;51.854;6.622;2023-01-28T03:37:21;102639.25;;;3.76;82.67
14204;BME280;7185;51.854;6.622;2023-01-28T03:39:53;102641.56;;;3.70;82.79
14204;BME280;7185;51.854;6.622;2023-01-28T03:42:27;102645.13;;;3.72;83.07
14204;BME280;7185;51.854;6.622;2023-01-28T03:44:59;102636.25;;;3.67;83.19
14204;BME280;7185;51.854;6.622;2023-01-28T03:47:33;102643.13;;;3.66;83.05
14204;BME280;7185;51.854;6.622;2023-01-28T03:50:07;102638.78;;;3.65;83.09
14204;BME280;7185;51.854;6.622;2023-01-28T03:52:39;102648.25;;;3.65;83.17
14204;BME280;7185;51.854;6.622;2023-01-28T03:55:10;102644.03;;;3.67;82.88
14204;BME280;7185;51.854;6.622;2023-01-28T03:57:43;102653.59;;;3.68;82.41
14204;BME280;7185;51.854;6.622;2023-01-28T04:00:16;102651.38;;;3.77;82.47
14204;BME280;7185;51.854;6.622;2023-01-28T04:02:49;102652.22;;;3.76;82.89
14204;BME280;7185;51.854;6.622;2023-01-28T04:05:22;102648.16;;;3.62;82.98
14204;BME280;7185;51.854;6.622;2023-01-28T04:07:55;102654.34;;;3.65;82.95
14204;BME280;7185;51.854;6.622;2023-01-28T04:10:26;102658.63;;;3.65;83.16
14204;BME280;7185;51.854;6.622;2023-01-28T04:12:58;102654.34;;;3.65;82.84
14204;BME280;7185;51.854;6.622;2023-01-28T04:15:29;102654.47;;;3.69;82.81
14204;BME280;7185;51.854;6.622;2023-01-28T04:18:01;102666.56;;;3.68;83.12
14204;BME280;7185;51.854;6.622;2023-01-28T04:20:34;102667.25;;;3.64;82.69
14204;BME280;7185;51.854;6.622;2023-01-28T04:23:06;102677.34;;;3.58;82.93
14204;BME280;7185;51.854;6.622;2023-01-28T04:25:39;102669.56;;;3.58;82.14
14204;BME280;7185;51.854;6.622;2023-01-28T04:28:10;102659.88;;;3.54;82.14
14204;BME280;7185;51.854;6.622;2023-01-28T04:30:42;102659.84;;;3.52;82.66
14204;BME280;7185;51.854;6.622;2023-01-28T04:33:14;102655.31;;;3.48;82.18
14204;BME280;7185;51.854;6.622;2023-01-28T04:35:47;102662.44;;;3.52;82.62
14204;BME280;7185;51.854;6.622;2023-01-28T04:38:19;102668.22;;;3.46;81.96
14204;BME280;7185;51.854;6.622;2023-01-28T04:40:51;102662.00;;;3.43;82.40
14204;BME280;7185;51.854;6.622;2023-01-28T04:43:23;102656.47;;;3.55;82.81
14204;BME280;7185;51.854;6.622;2023-01-28T04:45:54;102666.59;;;3.48;82.63
14204;BME280;7185;51.854;6.622;2023-01-28T04:48:26;102661.19;;;3.44;82.54
14204;BME280;7185;51.854;6.622;2023-01-28T04:51:01;102663.31;;;3.53;82.30
14204;BME280;7185;51.854;6.622;2023-01-28T04:53:33;102674.91;;;3.41;82.06
14204;BME280;7185;51.854;6.622;2023-01-28T04:56:05;102678.06;;;3.34;81.40
14204;BME280;7185;51.854;6.622;2023-01-28T04:58:36;102666.16;;;3.39;80.74
14204;BME280;7185;51.854;6.622;2023-01-28T05:01:08;102671.75;;;3.29;81.60
14204;BME280;7185;51.854;6.622;2023-01-28T05:03:39;102674.50;;;3.32;80.82
14204;BME280;7185;51.854;6.622;2023-01-28T05:06:12;102670.81;;;3.46;80.77
14204;BME280;7185;51.854;6.622;2023-01-28T05:08:44;102676.81;;;3.26;80.38
14204;BME280;7185;51.854;6.622;2023-01-28T05:11:16;102678.94;;;3.34;80.54
14204;BME280;7185;51.854;6.622;2023-01-28T05:13:47;102683.25;;;3.34;80.11
14204;BME280;7185;51.854;6.622;2023-01-28T05:16:19;102681.84;;;3.23;80.58
14204;BME280;7185;51.854;6.622;2023-01-28T05:18:51;102680.00;;;3.20;80.56
14204;BME280;7185;51.854;6.622;2023-01-28T05:21:23;102684.38;;;3.21;81.82
14204;BME280;7185;51.854;6.622;2023-01-28T05:23:55;102687.56;;;3.15;81.69
14204;BME280;7185;51.854;6.622;2023-01-28T05:26:26;102688.09;;;3.08;80.23
14204;BME280;7185;51.854;6.622;2023-01-28T05:28:58;102676.47;;;3.00;80.17
14204;BME280;7185;51.854;6.622;2023-01-28T05:31:30;102680.09;;;3.03;80.11
14204;BME280;7185;51.854;6.622;2023-01-28T05:34:01;102677.66;;;3.07;79.98
14204;BME280;7185;51.854;6.622;2023-01-28T05:36:34;102680.03;;;3.02;79.61
14204;BME280;7185;51.854;6.622;2023-01-28T05:39:06;102683.63;;;2.86;78.61
14204;BME280;7185;51.854;6.622;2023-01-28T05:41:38;102679.03;;;2.80;78.57
14204;BME280;7185;51.854;6.622;2023-01-28T05:44:09;102679.31;;;2.86;78.79
14204;BME280;7185;51.854;6.622;2023-01-28T05:46:41;102677.97;;;2.95;79.36
14204;BME280;7185;51.854;6.622;2023-01-28T05:49:15;102679.31;;;2.86;79.52
14204;BME280;7185;51.854;6.622;2023-01-28T05:51:48;102683.56;;;2.84;78.86
14204;BME280;7185;51.854;6.622;2023-01-28T05:54:20;102681.25;;;2.91;79.16
14204;BME280;7185;51.854;6.622;2023-01-28T05:56:51;102680.00;;;2.82;77.85
14204;BME280;7185;51.854;6.622;2023-01-28T05:59:23;102683.41;;;2.81;78.52
14204;BME280;7185;51.854;6.622;2023-01-28T06:01:54;102687.78;;;2.82;79.28
14204;BME280;7185;51.854;6.622;2023-01-28T06:04:26;102679.31;;;2.86;79.20
14204;BME280;7185;51.854;6.622;2023-01-28T06:06:59;102678.78;;;2.94;79.50
14204;BME280;7185;51.854;6.622;2023-01-28T06:09:30;102684.38;;;2.83;79.22
14204;BME280;7185;51.854;6.622;2023-01-28T06:12:02;102692.22;;;2.85;79.35
14204;BME280;7185;51.854;6.622;2023-01-28T06:14:34;102694.06;;;2.69;78.67
14204;BME280;7185;51.854;6.622;2023-01-28T06:17:05;102689.34;;;2.61;79.30
14204;BME280;7185;51.854;6.622;2023-01-28T06:19:37;102689.50;;;2.64;78.74
14204;BME280;7185;51.854;6.622;2023-01-28T06:22:10;102687.09;;;2.68;79.27
14204;BME280;7185;51.854;6.622;2023-01-28T06:24:41;102693.84;;;2.65;79.76
14204;BME280;7185;51.854;6.622;2023-01-28T06:27:13;102697.69;;;2.73;80.14
14204;BME280;7185;51.854;6.622;2023-01-28T06:29:44;102703.56;;;2.69;79.99
14204;BME280;7185;51.854;6.622;2023-01-28T06:32:16;102694.97;;;2.70;79.41
14204;BME280;7185;51.854;6.622;2023-01-28T06:34:48;102697.25;;;2.28;79.62
14204;BME280;7185;51.854;6.622;2023-01-28T06:37:21;102696.94;;;2.58;79.33
14204;BME280;7185;51.854;6.622;2023-01-28T06:39:52;102693.53;;;2.59;80.60
14204;BME280;7185;51.854;6.622;2023-01-28T06:42:24;102698.72;;;2.59;79.62
14204;BME280;7185;51.854;6.622;2023-01-28T06:44:55;102692.38;;;2.34;79.08
14204;BME280;7185;51.854;6.622;2023-01-28T06:47:27;102697.34;;;2.65;79.98
14204;BME280;7185;51.854;6.622;2023-01-28T06:49:58;102692.09;;;2.64;79.76
14204;BME280;7185;51.854;6.622;2023-01-28T06:52:31;102699.03;;;2.65;79.81
14204;BME280;7185;51.854;6.622;2023-01-28T06:55:03;102706.13;;;2.69;80.26
14204;BME280;7185;51.854;6.622;2023-01-28T06:57:36;102712.59;;;2.77;79.81
14204;BME280;7185;51.854;6.622;2023-01-28T07:00:10;102706.59;;;2.60;79.54
14204;BME280;7185;51.854;6.622;2023-01-28T07:02:44;102700.50;;;2.60;79.09
14204;BME280;7185;51.854;6.622;2023-01-28T07:05:16;102707.59;;;2.28;79.26
14204;BME280;7185;51.854;6.622;2023-01-28T07:07:49;102711.38;;;2.52;79.89
14204;BME280;7185;51.854;6.622;2023-01-28T07:10:20;102718.19;;;2.50;79.75
14204;BME280;7185;51.854;6.622;2023-01-28T07:12:52;102710.84;;;2.42;80.34
14204;BME280;7185;51.854;6.622;2023-01-28T07:15:24;102720.47;;;2.44;79.04
14204;BME280;7185;51.854;6.622;2023-01-28T07:17:55;102712.06;;;2.48;79.75
14204;BME280;7185;51.854;6.622;2023-01-28T07:20:27;102721.22;;;2.60;79.75
14204;BME280;7185;51.854;6.622;2023-01-28T07:23:00;102711.69;;;2.59;79.52
14204;BME280;7185;51.854;6.622;2023-01-28T07:25:31;102715.97;;;2.58;79.71
14204;BME280;7185;51.854;6.622;2023-01-28T07:28:03;102729.81;;;2.59;79.41
14204;BME280;7185;51.854;6.622;2023-01-28T07:30:35;102733.88;;;2.53;79.79
14204;BME280;7185;51.854;6.622;2023-01-28T07:33:06;102738.53;;;2.61;79.73
14204;BME280;7185;51.854;6.622;2023-01-28T07:35:38;102747.13;;;2.60;79.62
14204;BME280;7185;51.854;6.622;2023-01-28T07:38:11;102745.63;;;2.65;80.39
14204;BME280;7185;51.854;6.622;2023-01-28T07:40:43;102748.13;;;2.45;78.74
14204;BME280;7185;51.854;6.622;2023-01-28T07:43:14;102749.06;;;2.64;79.36
14204;BME280;7185;51.854;6.622;2023-01-28T07:45:46;102749.66;;;2.58;79.12
14204;BME280;7185;51.854;6.622;2023-01-28T07:48:18;102748.47;;;2.69;79.31
14204;BME280;7185;51.854;6.622;2023-01-28T07:50:49;102739.72;;;2.49;79.00
14204;BME280;7185;51.854;6.622;2023-01-28T07:53:22;102751.13;;;2.53;77.77
14204;BME280;7185;51.854;6.622;2023-01-28T07:55:58;102754.75;;;2.57;77.65
14204;BME280;7185;51.854;6.622;2023-01-28T07:58:29;102746.34;;;2.44;78.66
14204;BME280;7185;51.854;6.622;2023-01-28T08:01:01;102753.50;;;2.48;77.57
14204;BME280;7185;51.854;6.622;2023-01-28T08:03:33;102762.53;;;2.57;78.60
14204;BME280;7185;51.854;6.622;2023-01-28T08:06:05;102771.84;;;2.53;79.16
14204;BME280;7185;51.854;6.622;2023-01-28T08:08:38;102768.00;;;2.63;78.21
14204;BME280;7185;51.854;6.622;2023-01-28T08:11:11;102779.47;;;2.68;77.74
14204;BME280;7185;51.854;6.622;2023-01-28T08:13:43;102787.09;;;2.65;76.77
14204;BME280;7185;51.854;6.622;2023-01-28T08:16:14;102778.81;;;2.72;77.80
14204;BME280;7185;51.854;6.622;2023-01-28T08:18:46;102785.13;;;2.77;77.78
14204;BME280;7185;51.854;6.622;2023-01-28T08:21:18;102793.03;;;2.80;76.75
14204;BME280;7185;51.854;6.622;2023-01-28T08:23:50;102786.47;;;2.87;76.79
14204;BME280;7185;51.854;6.622;2023-01-28T08:26:22;102787.28;;;2.86;76.71
14204;BME280;7185;51.854;6.622;2023-01-28T08:28:54;102799.41;;;3.05;76.30
14204;BME280;7185;51.854;6.622;2023-01-28T08:31:26;102806.38;;;3.06;77.18
14204;BME280;7185;51.854;6.622;2023-01-28T08:33:58;102806.81;;;3.15;76.91
14204;BME280;7185;51.854;6.622;2023-01-28T08:36:30;102813.19;;;3.04;75.94
14204;BME280;7185;51.854;6.622;2023-01-28T08:39:03;102813.19;;;3.04;76.17
14204;BME280;7185;51.854;6.622;2023-01-28T08:41:35;102807.50;;;3.11;76.12
14204;BME280;7185;51.854;6.622;2023-01-28T08:44:06;102817.03;;;3.12;76.66
14204;BME280;7185;51.854;6.622;2023-01-28T08:46:38;102822.06;;;3.09;75.85
14204;BME280;7185;51.854;6.622;2023-01-28T08:49:09;102826.72;;;3.16;76.02
14204;BME280;7185;51.854;6.622;2023-01-28T08:51:41;102825.75;;;3.14;76.11
14204;BME280;7185;51.854;6.622;2023-01-28T08:54:14;102829.78;;;3.26;75.29
14204;BME280;7185;51.854;6.622;2023-01-28T08:56:45;102820.44;;;3.11;75.21
14204;BME280;7185;51.854;6.622;2023-01-28T08:59:18;102824.44;;;3.23;75.85
14204;BME280;7185;51.854;6.622;2023-01-28T09:01:50;102824.00;;;3.13;75.24
14204;BME280;7185;51.854;6.622;2023-01-28T09:04:21;102828.75;;;3.22;75.33
14204;BME280;7185;51.854;6.622;2023-01-28T09:06:53;102834.97;;;3.26;74.68
14204;BME280;7185;51.854;6.622;2023-01-28T09:09:29;102821.47;;;2.97;73.98
14204;BME280;7185;51.854;6.622;2023-01-28T09:12:01;102832.06;;;2.83;74.82
14204;BME280;7185;51.854;6.622;2023-01-28T09:14:32;102825.25;;;3.22;75.55
14204;BME280;7185;51.854;6.622;2023-01-28T09:17:04;102831.53;;;2.91;73.80
14204;BME280;7185;51.854;6.622;2023-01-28T09:19:36;102838.94;;;3.01;75.72
14204;BME280;7185;51.854;6.622;2023-01-28T09:22:07;102834.06;;;3.25;76.05
14204;BME280;7185;51.854;6.622;2023-01-28T09:24:41;102839.41;;;3.28;76.15
14204;BME280;7185;51.854;6.622;2023-01-28T09:27:12;102830.19;;;3.35;75.73
14204;BME280;7185;51.854;6.622;2023-01-28T09:29:44;102823.81;;;3.46;76.15
14204;BME280;7185;51.854;6.622;2023-01-28T09:32:15;102831.69;;;3.48;74.56
14204;BME280;7185;51.854;6.622;2023-01-28T09:34:47;102823.81;;;3.64;74.32
14204;BME280;7185;51.854;6.622;2023-01-28T09:37:18;102833.53;;;3.70;74.59
14204;BME280;7185;51.854;6.622;2023-01-28T09:39:51;102837.13;;;3.72;74.69
14204;BME280;7185;51.854;6.622;2023-01-28T09:42:43;102841.69;;;3.58;73.53
14204;BME280;7185;51.854;6.622;2023-01-28T09:45:23;102844.72;;;3.31;72.52
14204;BME280;7185;51.854;6.622;2023-01-28T09:47:58;102842.84;;;3.65;73.88
14204;BME280;7185;51.854;6.622;2023-01-28T09:50:35;102831.38;;;3.60;74.04
14204;BME280;7185;51.854;6.622;2023-01-28T09:53:12;102833.84;;;3.76;74.43
14204;BME280;7185;51.854;6.622;2023-01-28T09:55:50;102845.75;;;3.91;74.44
14204;BME280;7185;51.854;6.622;2023-01-28T09:58:25;102848.81;;;3.82;73.11
14204;BME280;7185;51.854;6.622;2023-01-28T10:01:01;102854.63;;;3.96;73.23
14204;BME280;7185;51.854;6.622;2023-01-28T10:03:43;102870.47;;;3.82;73.11
14204;BME280;7185;51.854;6.622;2023-01-28T10:06:22;102862.59;;;3.81;72.93
14204;BME280;7185;51.854;6.622;2023-01-28T10:09:09;102864.50;;;3.65;72.66
14204;BME280;7185;51.854;6.622;2023-01-28T10:11:55;102861.06;;;3.66;73.95
14204;BME280;7185;51.854;6.622;2023-01-28T10:14:42;102858.47;;;3.66;74.59
14204;BME280;7185;51.854;6.622;2023-01-28T10:17:21;102857.00;;;3.72;73.96
14204;BME280;7185;51.854;6.622;2023-01-28T10:19:58;102867.97;;;3.66;74.69
14204;BME280;7185;51.854;6.622;2023-01-28T10:22:36;102869.19;;;3.55;73.39
14204;BME280;7185;51.854;6.622;2023-01-28T10:25:16;102867.16;;;3.67;73.73
14204;BME280;7185;51.854;6.622;2023-01-28T10:27:50;102876.78;;;3.70;74.46
14204;BME280;7185;51.854;6.622;2023-01-28T10:30:24;102874.88;;;3.65;74.49
14204;BME280;7185;51.854;6.622;2023-01-28T10:33:00;102880.97;;;3.86;73.96
14204;BME280;7185;51.854;6.622;2023-01-28T10:35:37;102882.19;;;3.74;74.53
14204;BME280;7185;51.854;6.622;2023-01-28T10:38:13;102874.47;;;3.76;74.95
14204;BME280;7185;51.854;6.622;2023-01-28T10:40:45;102867.06;;;3.83;73.69
14204;BME280;7185;51.854;6.622;2023-01-28T10:43:22;102866.25;;;3.66;72.93
14204;BME280;7185;51.854;6.622;2023-01-28T10:45:58;102863.88;;;3.71;73.36
14204;BME280;7185;51.854;6.622;2023-01-28T10:48:33;102860.88;;;3.62;73.92
14204;BME280;7185;51.854;6.622;2023-01-28T10:51:07;102863.25;;;3.57;73.48
14204;BME280;7185;51.854;6.622;2023-01-28T10:53:40;102861.22;;;3.70;73.46
14204;BME280;7185;51.854;6.622;2023-01-28T10:56:14;102848.72;;;3.61;73.53
14204;BME280;7185;51.854;6.622;2023-01-28T10:58:55;102847.22;;;3.66;74.39
14204;BME280;7185;51.854;6.622;2023-01-28T11:01:43;102844.78;;;3.69;73.67
14204;BME280;7185;51.854;6.622;2023-01-28T11:04:18;102853.22;;;3.85;73.38
14204;BME280;7185;51.854;6.622;2023-01-28T11:06:55;102858.94;;;3.58;73.54
14204;BME280;7185;51.854;6.622;2023-01-28T11:09:28;102851.06;;;3.74;74.44
14204;BME280;7185;51.854;6.622;2023-01-28T11:12:10;102838.84;;;3.72;74.53
14204;BME280;7185;51.854;6.622;2023-01-28T11:14:49;102834.41;;;3.89;75.01
14204;BME280;7185;51.854;6.622;2023-01-28T11:17:23;102839.59;;;3.89;73.34
14204;BME280;7185;51.854;6.622;2023-01-28T11:20:00;102821.06;;;3.81;71.93
14204;BME280;7185;51.854;6.622;2023-01-28T11:22:41;102822.41;;;3.91;74.25
14204;BME280;7185;51.854;6.622;2023-01-28T11:25:18;102819.66;;;4.07;72.67
14204;BME280;7185;51.854;6.622;2023-01-28T11:27:54;102812.47;;;3.82;72.88
14204;BME280;7185;51.854;6.622;2023-01-28T11:30:31;102813.16;;;4.17;72.63
14204;BME280;7185;51.854;6.622;2023-01-28T11:33:06;102805.16;;;4.12;72.10
14204;BME280;7185;51.854;6.622;2023-01-28T11:35:52;102804.81;;;4.24;72.22
14204;BME280;7185;51.854;6.622;2023-01-28T11:38:25;102814.16;;;4.40;72.53
14204;BME280;7185;51.854;6.622;2023-01-28T11:40:57;102823.75;;;4.22;72.44
14204;BME280;7185;51.854;6.622;2023-01-28T11:43:30;102824.00;;;4.28;72.12
14204;BME280;7185;51.854;6.622;2023-01-28T11:46:20;102804.13;;;4.28;71.57
14204;BME280;7185;51.854;6.622;2023-01-28T11:49:02;102801.19;;;4.21;73.06
14204;BME280;7185;51.854;6.622;2023-01-28T11:51:46;102803.44;;;4.33;72.57
14204;BME280;7185;51.854;6.622;2023-01-28T11:54:42;102797.25;;;4.09;70.76
14204;BME280;7185;51.854;6.622;2023-01-28T11:57:22;102779.63;;;3.63;71.81
14204;BME280;7185;51.854;6.622;2023-01-28T12:00:27;102752.19;;;3.48;72.74
14204;BME280;7185;51.854;6.622;2023-01-28T12:06:30;102714.09;;;3.67;70.34
14204;BME280;7185;51.854;6.622;2023-01-28T12:09:12;102694.47;;;3.74;73.59
14204;BME280;7185;51.854;6.622;2023-01-28T12:12:00;102695.03;;;5.89;78.60
14204;BME280;7185;51.854;6.622;2023-01-28T12:15:00;102696.16;;;8.65;71.44
14204;BME280;7185;51.854;6.622;2023-01-28T12:17:43;102690.69;;;9.81;53.93
14204;BME280;7185;51.854;6.622;2023-01-28T12:20:21;102686.53;;;11.80;51.02
14204;BME280;7185;51.854;6.622;2023-01-28T12:23:22;102689.34;;;13.19;49.93
14204;BME280;7185;51.854;6.622;2023-01-28T12:26:05;102696.59;;;14.81;44.10
14204;BME280;7185;51.854;6.622;2023-01-28T12:28:51;102699.22;;;14.72;38.22
14204;BME280;7185;51.854;6.622;2023-01-28T12:31:51;102703.66;;;14.39;36.72
14204;BME280;7185;51.854;6.622;2023-01-28T12:34:55;102703.66;;;14.18;37.32
14204;BME280;7185;51.854;6.622;2023-01-28T12:37:43;102700.13;;;14.04;37.41
14204;BME280;7185;51.854;6.622;2023-01-28T12:40:37;102713.25;;;13.62;38.34
14204;BME280;7185;51.854;6.622;2023-01-28T12:43:16;102720.38;;;14.25;40.19
14204;BME280;7185;51.854;6.622;2023-01-28T12:45:53;102719.44;;;13.91;37.80
14204;BME280;7185;51.854;6.622;2023-01-28T12:48:30;102717.47;;;13.34;38.17
14204;BME280;7185;51.854;6.622;2023-01-28T12:51:09;102729.72;;;12.02;39.96
14204;BME280;7185;51.854;6.622;2023-01-28T12:53:48;102722.44;;;12.75;39.38
14204;BME280;7185;51.854;6.622;2023-01-28T12:56:28;102716.84;;;14.35;38.59
14204;BME280;7185;51.854;6.622;2023-01-28T12:59:09;102703.63;;;16.42;35.34
14204;BME280;7185;51.854;6.622;2023-01-28T13:01:47;102707.00;;;16.58;33.23
14204;BME280;7185;51.854;6.622;2023-01-28T13:04:30;102706.41;;;17.81;32.76
14204;BME280;7185;51.854;6.622;2023-01-28T13:07:06;102712.59;;;19.32;31.40
14204;BME280;7185;51.854;6.622;2023-01-28T13:09:46;102708.78;;;19.45;29.47
14204;BME280;7185;51.854;6.622;2023-01-28T13:12:23;102706.16;;;19.84;28.09
14204;BME280;7185;51.854;6.622;2023-01-28T13:14:55;102712.34;;;19.85;27.93
14204;BME280;7185;51.854;6.622;2023-01-28T13:17:53;102708.00;;;20.53;28.03
14204;BME280;7185;51.854;6.622;2023-01-28T13:20:44;102711.88;;;20.74;27.59
14204;BME280;7185;51.854;6.622;2023-01-28T13:23:36;102696.34;;;21.80;25.94
14204;BME280;7185;51.854;6.622;2023-01-28T13:26:25;102693.31;;;22.70;24.73
14204;BME280;7185;51.854;6.622;2023-01-28T13:29:29;102697.63;;;22.22;24.65
14204;BME280;7185;51.854;6.622;2023-01-28T13:32:31;102704.97;;;21.88;24.68
14204;BME280;7185;51.854;6.622;2023-01-28T13:35:29;102709.34;;;21.62;23.99
14204;BME280;7185;51.854;6.622;2023-01-28T13:38:07;102692.91;;;21.46;24.30
14204;BME280;7185;51.854;6.622;2023-01-28T13:40:39;102682.66;;;21.02;25.39
14204;BME280;7185;51.854;6.622;2023-01-28T13:43:27;102674.63;;;20.73;25.26
14204;BME280;7185;51.854;6.622;2023-01-28T13:46:10;102668.25;;;20.44;25.65
14204;BME280;7185;51.854;6.622;2023-01-28T13:48:45;102658.09;;;18.65;26.57
14204;BME280;7185;51.854;6.622;2023-01-28T13:51:23;102654.78;;;18.02;27.21
14204;BME280;7185;51.854;6.622;2023-01-28T13:53:59;102646.47;;;17.05;29.63
14204;BME280;7185;51.854;6.622;2023-01-28T13:56:39;102632.25;;;16.31;28.97
14204;BME280;7185;51.854;6.622;2023-01-28T13:59:32;102618.69;;;15.58;30.81
14204;BME280;7185;51.854;6.622;2023-01-28T14:02:40;102625.22;;;14.98;32.14